Time;durP1;ratioP1;P1;durP2;ratioP2;P2;SDS_P1;SDS_P2;PMS_P1;PMS_P2;Temp;Humidity;BMP_temperature;BMP_pressure;BME280_temperature;BME280_humidity;BME280_pressure;Samples;Min_cycle;Max_cycle;Signal;HPM_P1;HPM_P2
2022/03/15 00:01:54;;;;;;;;;9.00;8.67;;;;;13.02;54.53;102185.16;5055600;28;59322;-78
2022/03/15 00:04:19;;;;;;;;;11.00;10.00;;;;;12.97;54.38;102182.38;5053083;28;49224;-77
2022/03/15 00:06:45;;;;;;;;;13.00;11.00;;;;;13.02;54.48;102179.84;5054376;28;45724;-77
2022/03/15 00:09:10;;;;;;;;;13.33;10.00;;;;;13.02;54.59;102179.84;5055550;28;45756;-77
2022/03/15 00:11:40;;;;;;;;;9.00;7.33;;;;;12.97;54.38;102169.13;5055656;28;46653;-77
2022/03/15 00:14:05;;;;;;;;;12.67;9.67;;;;;13.01;54.34;102168.34;5054316;28;45426;-76
2022/03/15 00:16:31;;;;;;;;;9.00;9.00;;;;;13.01;54.64;102163.03;5056044;28;45278;-78
2022/03/15 00:19:15;;;;;;;;;11.67;10.00;;;;;13.00;54.67;102157.72;5054449;28;47700;-77
2022/03/15 00:21:41;;;;;;;;;13.00;9.33;;;;;12.99;54.55;102163.84;5053239;28;45513;-77
2022/03/15 00:24:07;;;;;;;;;9.67;9.67;;;;;12.97;54.71;102158.53;5055725;28;45278;-76
2022/03/15 00:26:33;;;;;;;;;10.75;9.00;;;;;12.95;54.47;102156.72;5049671;28;45576;-77
2022/03/15 00:28:58;;;;;;;;;11.67;10.67;;;;;12.98;54.85;102162.97;5033736;28;45717;-77
2022/03/15 00:31:24;;;;;;;;;10.00;9.00;;;;;12.95;54.88;102162.91;5050015;28;45460;-76
2022/03/15 00:33:49;;;;;;;;;11.00;10.00;;;;;12.95;54.95;102160.25;5054565;28;54610;-78
2022/03/15 00:36:17;;;;;;;;;12.00;9.33;;;;;12.93;54.52;102158.41;5053734;28;57923;-77
2022/03/15 00:38:43;;;;;;;;;10.00;9.67;;;;;12.88;54.88;102158.31;5054425;28;46063;-78
2022/03/15 00:41:21;;;;;;;;;11.33;11.00;;;;;12.93;54.72;102161.06;5039325;28;45355;-77
2022/03/15 00:43:47;;;;;;;;;11.00;11.00;;;;;12.93;54.82;102166.38;5054396;28;45473;-78
2022/03/15 00:46:15;;;;;;;;;10.00;8.67;;;;;12.92;54.57;102157.53;5058633;28;45358;-78
2022/03/15 00:48:40;;;;;;;;;11.00;10.67;;;;;12.90;54.80;102153.97;5052374;28;58804;-77
2022/03/15 00:51:08;;;;;;;;;11.00;9.00;;;;;12.92;54.84;102154.88;5056874;28;59959;-78
2022/03/15 00:53:33;;;;;;;;;10.67;8.67;;;;;12.91;55.16;102155.75;5058319;28;45226;-76
2022/03/15 00:55:58;;;;;;;;;10.67;10.00;;;;;12.91;55.03;102155.75;5058994;28;50593;-78
2022/03/15 00:58:24;;;;;;;;;12.67;8.33;;;;;12.91;54.77;102147.78;5057057;28;56786;-78
2022/03/15 01:00:50;;;;;;;;;11.00;7.67;;;;;12.84;55.02;102143.22;5054496;28;45434;-77
2022/03/15 01:03:16;;;;;;;;;13.67;9.67;;;;;12.90;55.11;102139.81;5056694;28;45445;-76
2022/03/15 01:05:41;;;;;;;;;16.00;10.50;;;;;12.90;55.15;102145.13;5040649;28;45466;-77
2022/03/15 01:08:14;;;;;;;;;16.33;13.00;;;;;12.89;55.01;102141.56;5058659;28;46339;-77
2022/03/15 01:10:41;;;;;;;;;14.67;9.67;;;;;12.82;55.16;102126.38;5057743;28;45290;-78
2022/03/15 01:13:06;;;;;;;;;10.50;10.25;;;;;12.88;55.15;102137.09;5059234;28;45438;-78
2022/03/15 01:15:35;;;;;;;;;7.00;7.00;;;;;12.87;55.00;102137.97;5051392;28;45413;-77
2022/03/15 01:18:01;;;;;;;;;10.00;10.00;;;;;12.86;55.37;102122.94;5057470;28;45518;-77
2022/03/15 01:20:27;;;;;;;;;11.00;10.00;;;;;12.89;55.45;102119.44;5047994;28;45296;-78
2022/03/15 01:22:52;;;;;;;;;14.50;10.75;;;;;12.89;55.30;102119.44;5058467;28;55736;-78
2022/03/15 01:25:18;;;;;;;;;12.00;10.00;;;;;12.86;55.12;102109.69;5057716;28;56575;-77
2022/03/15 01:27:43;;;;;;;;;13.33;11.00;;;;;12.90;55.31;102116.84;5050488;28;61050;-77
2022/03/15 01:30:09;;;;;;;;;13.00;10.00;;;;;12.89;55.45;102117.72;5057360;28;58209;-76
2022/03/15 01:32:35;;;;;;;;;9.33;7.00;;;;;12.90;55.50;102110.66;5058625;28;45556;-78
2022/03/15 01:35:00;;;;;;;;;14.33;10.00;;;;;12.89;55.32;102115.06;5040278;28;45364;-77
2022/03/15 01:37:25;;;;;;;;;16.67;7.33;;;;;12.90;55.19;102106.25;5057399;28;45624;-78
2022/03/15 01:39:52;;;;;;;;;12.33;8.67;;;;;12.92;55.30;102100.97;5059073;28;56513;-77
2022/03/15 01:42:17;;;;;;;;;9.00;7.33;;;;;12.92;55.45;102101.84;5053484;28;45535;-77
2022/03/15 01:44:48;;;;;;;;;10.33;7.00;;;;;12.91;55.25;102092.13;5056907;28;50803;-77
2022/03/15 01:47:13;;;;;;;;;9.33;7.67;;;;;12.92;55.50;102091.25;5037742;28;48669;-77
2022/03/15 01:49:39;;;;;;;;;9.67;7.33;;;;;12.92;55.30;102088.59;5052379;28;45469;-77
2022/03/15 01:52:05;;;;;;;;;10.67;7.67;;;;;12.88;55.54;102077.91;5056030;28;47242;-78
2022/03/15 01:54:36;;;;;;;;;12.33;9.33;;;;;12.91;55.37;102081.50;5057625;28;46356;-77
2022/03/15 01:57:03;;;;;;;;;12.00;7.67;;;;;12.91;55.56;102076.22;5068812;28;46127;-78
2022/03/15 01:59:39;;;;;;;;;6.67;5.67;;;;;12.91;55.51;102073.56;5049708;28;45417;-78
2022/03/15 02:02:04;;;;;;;;;5.00;5.00;;;;;12.89;55.35;102053.16;5055968;28;45318;-78
2022/03/15 02:04:32;;;;;;;;;7.00;6.00;;;;;12.95;55.41;102063.94;5058336;28;45226;-77
2022/03/15 02:07:08;;;;;;;;;5.00;5.00;;;;;12.94;55.65;102052.41;5057625;28;46390;-78
2022/03/15 02:09:34;;;;;;;;;9.00;4.33;;;;;12.98;55.28;102054.25;5050762;28;45659;-77
2022/03/15 02:11:59;;;;;;;;;8.33;6.00;;;;;13.01;55.34;102054.34;5057799;28;45518;-77
2022/03/15 02:14:25;;;;;;;;;6.67;4.00;;;;;13.03;55.54;102051.72;5056965;28;45495;-78
2022/03/15 02:16:50;;;;;;;;;5.67;3.67;;;;;12.99;55.25;102036.59;5057446;28;46515;-77
2022/03/15 02:19:16;;;;;;;;;5.33;4.00;;;;;13.04;55.30;102038.47;5053854;28;45423;-78
2022/03/15 02:21:41;;;;;;;;;6.67;5.00;;;;;13.08;55.54;102048.28;5057478;28;48609;-77
2022/03/15 02:24:07;;;;;;;;;6.67;5.00;;;;;13.10;55.70;102043.94;5057986;28;52074;-77
2022/03/15 02:26:33;;;;;;;;;7.00;5.33;;;;;13.09;55.82;102036.81;5055578;28;58926;-77
2022/03/15 02:28:58;;;;;;;;;5.67;5.67;;;;;13.11;55.59;102035.09;5055286;28;60455;-79
2022/03/15 02:31:24;;;;;;;;;5.00;5.00;;;;;13.13;55.89;102032.47;5056264;28;55381;-77
2022/03/15 02:33:49;;;;;;;;;7.00;5.67;;;;;13.15;55.77;102029.84;5056781;28;45387;-78
2022/03/15 02:36:16;;;;;;;;;4.33;4.33;;;;;13.14;55.78;102021.00;5055846;28;45626;-79
2022/03/15 02:38:42;;;;;;;;;6.33;5.00;;;;;13.16;56.25;102021.03;5051699;28;45401;-78
2022/03/15 02:41:07;;;;;;;;;10.33;5.33;;;;;13.17;56.22;102026.38;5056778;28;45340;-78
2022/03/15 02:43:36;;;;;;;;;8.33;7.67;;;;;13.17;56.26;102010.47;5057536;28;45337;-78
2022/03/15 02:46:02;;;;;;;;;6.00;6.00;;;;;13.18;56.39;102017.53;5056284;28;46199;-79
2022/03/15 02:48:29;;;;;;;;;7.00;5.67;;;;;13.19;56.21;102011.38;5055314;28;45626;-78
2022/03/15 02:50:57;;;;;;;;;7.00;5.67;;;;;13.23;56.52;102007.06;5056487;28;55056;-78
2022/03/15 02:53:22;;;;;;;;;10.00;6.67;;;;;13.24;56.52;102015.03;5057072;28;45542;-79
2022/03/15 02:55:48;;;;;;;;;9.33;6.00;;;;;13.25;56.49;102000.91;5056309;28;63147;-78
2022/03/15 02:58:14;;;;;;;;;8.33;6.33;;;;;13.26;56.98;102002.72;5051823;28;61327;-77
2022/03/15 03:00:39;;;;;;;;;11.00;5.67;;;;;13.27;56.80;101996.53;5055805;28;45760;-78
2022/03/15 03:03:05;;;;;;;;;7.00;6.00;;;;;13.28;57.23;101990.38;5055881;28;52874;-77
2022/03/15 03:05:33;;;;;;;;;7.00;5.67;;;;;13.29;56.94;101988.59;5053670;28;47760;-78
2022/03/15 03:08:00;;;;;;;;;11.00;10.00;;;;;13.29;57.47;101986.84;5049128;28;61330;-79
2022/03/15 03:10:25;;;;;;;;;8.33;6.67;;;;;13.31;57.23;101984.22;5055676;28;45420;-78
2022/03/15 03:12:51;;;;;;;;;5.33;5.33;;;;;13.32;57.88;101986.03;5053543;28;45658;-78
2022/03/15 03:15:20;;;;;;;;;10.67;7.67;;;;;13.31;57.51;101982.44;5053460;28;46535;-78
2022/03/15 03:17:46;;;;;;;;;9.33;9.33;;;;;13.34;57.98;101994.88;5055578;28;46516;-77
2022/03/15 03:20:14;;;;;;;;;10.33;5.67;;;;;13.33;57.95;101987.81;5055620;28;57345;-78
2022/03/15 03:22:41;;;;;;;;;11.00;7.00;;;;;13.35;57.80;101986.06;5056957;28;45572;-78
2022/03/15 03:25:07;;;;;;;;;6.67;6.67;;;;;13.35;57.93;101989.59;5052697;28;46314;-78
2022/03/15 03:27:32;;;;;;;;;8.00;7.00;;;;;13.34;57.98;101987.81;5051637;28;45896;-78
2022/03/15 03:29:58;;;;;;;;;7.00;7.00;;;;;13.36;58.63;101990.50;5054502;28;51089;-77
2022/03/15 03:32:36;;;;;;;;;8.00;7.00;;;;;13.36;58.72;101980.78;5038041;28;45627;-78
2022/03/15 03:35:04;;;;;;;;;10.00;6.00;;;;;13.36;58.35;101988.72;5050868;28;46438;-77
2022/03/15 03:37:30;;;;;;;;;8.33;6.67;;;;;13.38;59.09;101990.53;5037518;28;45627;-78
2022/03/15 03:39:55;;;;;;;;;8.67;8.67;;;;;13.38;59.55;101990.53;5056358;28;45310;-78
2022/03/15 03:42:21;;;;;;;;;8.33;6.33;;;;;13.36;59.58;101986.06;5048779;28;56839;-78
2022/03/15 03:44:46;;;;;;;;;9.67;7.00;;;;;13.37;59.68;101987.00;5055896;28;45478;-77
2022/03/15 03:47:12;;;;;;;;;7.00;7.00;;;;;13.34;60.19;101986.94;5056201;28;45334;-79
2022/03/15 03:49:38;;;;;;;;;7.33;7.33;;;;;13.37;60.04;101984.34;5050697;28;45354;-77
2022/03/15 03:52:05;;;;;;;;;10.67;8.33;;;;;13.38;60.43;101985.25;5048536;28;45483;-78
2022/03/15 03:54:37;;;;;;;;;7.67;7.67;;;;;13.35;60.66;101978.09;5054965;28;46558;-78
2022/03/15 03:57:03;;;;;;;;;9.67;9.33;;;;;13.35;60.37;101975.44;5051961;28;45471;-77
2022/03/15 03:59:28;;;;;;;;;10.00;6.67;;;;;13.36;60.54;101985.19;5038632;28;45273;-78
2022/03/15 04:01:53;;;;;;;;;10.67;7.00;;;;;13.33;61.27;101980.72;5055550;28;56838;-78
2022/03/15 04:04:19;;;;;;;;;10.00;8.33;;;;;13.33;61.65;101978.09;5052150;28;48008;-78
2022/03/15 04:06:44;;;;;;;;;7.33;7.33;;;;;13.28;61.58;101971.78;5052101;28;60413;-78
2022/03/15 04:09:10;;;;;;;;;9.67;9.00;;;;;13.27;62.40;101967.38;5050647;28;45402;-78
2022/03/15 04:11:36;;;;;;;;;11.67;9.33;;;;;13.23;62.58;101975.22;5049166;28;45572;-78
2022/03/15 04:14:03;;;;;;;;;11.00;7.00;;;;;13.23;62.13;101965.50;5055077;28;45713;-78
2022/03/15 04:16:29;;;;;;;;;8.00;7.00;;;;;13.26;62.28;101967.31;5054481;28;45304;-77
2022/03/15 04:18:54;;;;;;;;;11.00;10.00;;;;;13.25;62.48;101962.88;5030770;28;45463;-77
2022/03/15 04:21:24;;;;;;;;;7.00;7.00;;;;;13.23;62.87;101960.22;5052593;28;54905;-78
2022/03/15 04:23:54;;;;;;;;;11.33;8.33;;;;;13.22;63.46;101961.09;5056096;28;46503;-78
2022/03/15 04:26:19;;;;;;;;;12.67;8.67;;;;;13.20;63.06;101964.53;5031993;28;45367;-79
2022/03/15 04:28:45;;;;;;;;;7.00;7.00;;;;;13.20;63.45;101968.06;5048162;28;45610;-77
2022/03/15 04:31:10;;;;;;;;;10.67;10.67;;;;;13.20;64.08;101968.06;5055408;28;45621;-78
2022/03/15 04:33:36;;;;;;;;;9.00;9.00;;;;;13.19;63.34;101960.09;5049755;28;46311;-78
2022/03/15 04:36:12;;;;;;;;;10.00;9.00;;;;;13.12;63.24;101948.47;5049962;28;58303;-77
2022/03/15 04:38:37;;;;;;;;;13.00;11.67;;;;;13.16;64.04;101954.75;5055436;28;45796;-78
2022/03/15 04:41:07;;;;;;;;;12.00;7.33;;;;;13.17;64.69;101953.88;5055511;28;53766;-77
2022/03/15 04:43:33;;;;;;;;;11.33;9.00;;;;;13.16;64.36;101952.97;5052843;28;46268;-77
2022/03/15 04:45:59;;;;;;;;;12.00;9.00;;;;;13.04;65.11;101926.22;5054689;28;45419;-80
2022/03/15 04:48:33;;;;;;;;;11.00;11.00;;;;;13.14;64.68;101935.25;5054631;28;45396;-78
2022/03/15 04:50:59;;;;;;;;;12.00;12.00;;;;;13.14;65.19;101940.53;5054374;28;45605;-80
2022/03/15 04:53:24;;;;;;;;;16.67;13.00;;;;;13.13;65.06;101944.06;5053584;28;60266;-78
2022/03/15 04:55:49;;;;;;;;;11.33;11.33;;;;;13.13;65.42;101944.97;5036936;28;63917;-78
2022/03/15 04:58:15;;;;;;;;;10.33;9.00;;;;;13.10;65.42;101931.63;5050286;28;45479;-78
2022/03/15 05:00:40;;;;;;;;;11.00;11.00;;;;;13.12;65.51;101937.88;5054442;28;49017;-77
2022/03/15 05:03:07;;;;;;;;;14.67;12.33;;;;;13.11;65.59;101936.09;5053132;28;46473;-78
2022/03/15 05:05:32;;;;;;;;;10.00;10.00;;;;;13.11;65.80;101936.09;5054335;28;48422;-78
2022/03/15 05:07:58;;;;;;;;;11.67;10.67;;;;;13.13;65.97;101944.06;5053914;28;45757;-78
2022/03/15 05:13:08;;;;;;;;;11.00;11.00;;;;;13.11;65.82;101941.41;5046340;28;45727;-79
2022/03/15 05:15:37;;;;;;;;;13.00;10.00;;;;;13.12;66.11;101943.19;5048423;28;45525;-78
2022/03/15 05:18:03;;;;;;;;;13.33;12.33;;;;;13.08;66.59;101931.59;5053105;28;50625;-78
2022/03/15 05:20:29;;;;;;;;;14.00;13.00;;;;;13.12;66.15;101940.53;5052590;28;45568;-78
2022/03/15 05:22:55;;;;;;;;;13.00;10.00;;;;;13.13;66.59;101946.72;5052765;28;46327;-78
2022/03/15 05:25:21;;;;;;;;;16.33;14.00;;;;;13.11;66.59;101936.97;5053568;28;45509;-79
2022/03/15 05:27:46;;;;;;;;;16.00;13.00;;;;;13.13;66.56;101933.47;5058080;28;51984;-77
2022/03/15 05:30:12;;;;;;;;;16.33;13.00;;;;;13.12;67.08;101935.22;5057419;28;45479;-76
2022/03/15 05:32:38;;;;;;;;;13.00;13.00;;;;;13.14;66.86;101940.53;5057950;28;46483;-76
2022/03/15 05:35:04;;;;;;;;;17.33;12.33;;;;;13.14;67.06;101941.44;5050083;28;60885;-76
2022/03/15 05:37:30;;;;;;;;;13.00;13.00;;;;;13.11;67.44;101944.94;5051209;28;45531;-79
2022/03/15 05:39:55;;;;;;;;;17.00;13.00;;;;;13.16;67.29;101952.09;5055609;28;52574;-77
2022/03/15 05:42:21;;;;;;;;;17.67;15.67;;;;;13.15;67.30;101951.16;5050780;28;48426;-76
2022/03/15 05:44:46;;;;;;;;;18.00;13.00;;;;;13.13;67.50;101938.75;5055099;28;45460;-78
2022/03/15 05:47:12;;;;;;;;;14.67;13.67;;;;;13.10;67.15;101932.56;5056412;28;45543;-76
2022/03/15 05:49:58;;;;;;;;;17.00;14.00;;;;;13.17;67.81;101940.63;5057991;28;45434;-76
2022/03/15 05:52:23;;;;;;;;;18.33;13.00;;;;;13.16;67.96;101946.78;5056957;28;46365;-78
2022/03/15 05:58:11;;;;;;;;;17.00;16.00;;;;;13.16;68.19;101952.09;5056659;28;47880;-78
2022/03/15 06:00:36;;;;;;;;;15.00;15.00;;;;;13.16;67.88;101945.03;5053888;28;45556;-80
2022/03/15 06:03:02;;;;;;;;;14.67;14.67;;;;;13.15;68.08;101947.63;5053535;28;46485;-79
2022/03/15 06:05:27;;;;;;;;;14.00;12.67;;;;;13.11;67.86;101949.34;5047543;28;59422;-82
2022/03/15 06:07:53;;;;;;;;;16.00;16.00;;;;;13.14;68.36;101957.34;5040273;28;50762;-78
2022/03/15 06:10:22;;;;;;;;;17.67;16.33;;;;;13.14;68.32;101953.81;5053083;28;45544;-78
2022/03/15 06:12:47;;;;;;;;;18.33;14.00;;;;;13.14;68.12;101954.69;5056409;28;45443;-79
2022/03/15 06:15:22;;;;;;;;;18.67;15.00;;;;;13.09;68.53;101949.31;5053409;28;45524;-77
2022/03/15 06:17:48;;;;;;;;;16.67;16.67;;;;;13.13;70.07;101958.22;5053264;28;56136;-78
2022/03/15 06:20:15;;;;;;;;;18.33;15.67;;;;;13.06;72.39;101959.88;5057211;28;45902;-76
2022/03/15 06:22:40;;;;;;;;;15.33;14.00;;;;;12.94;73.37;101953.41;5057141;28;46893;-77
2022/03/15 06:25:12;;;;;;;;;13.33;13.33;;;;;12.81;74.08;101957.59;5054425;28;45438;-79
2022/03/15 06:27:54;;;;;;;;;13.33;11.67;;;;;12.70;73.87;101956.50;5046504;28;45479;-77
2022/03/15 06:30:21;;;;;;;;;16.00;16.00;;;;;12.61;74.85;101945.69;5051803;28;45523;-78
2022/03/15 06:32:49;;;;;;;;;19.00;16.00;;;;;12.52;75.46;101946.44;5050386;28;46968;-77
2022/03/15 06:35:15;;;;;;;;;16.33;13.67;;;;;12.45;75.90;101955.97;5052344;28;62403;-76
2022/03/15 06:37:49;;;;;;;;;18.33;18.33;;;;;12.39;76.34;101954.97;5052262;28;45528;-76
2022/03/15 06:40:25;;;;;;;;;18.33;14.00;;;;;12.33;76.48;101945.13;5052193;28;45538;-77
2022/03/15 06:43:14;;;;;;;;;23.00;16.50;;;;;12.29;76.23;101953.84;5053457;28;47412;-77
2022/03/15 06:45:41;;;;;;;;;18.00;16.00;;;;;12.29;76.11;101953.84;5056549;28;54148;-78
2022/03/15 06:48:19;;;;;;;;;19.25;18.00;;;;;12.20;77.57;101946.63;5054119;28;45424;-79
2022/03/15 06:50:50;;;;;;;;;16.00;16.00;;;;;12.18;77.41;101950.06;5049690;28;46490;-79
2022/03/15 06:53:41;;;;;;;;;16.67;13.33;;;;;12.18;78.02;101960.66;5051833;28;47382;-76
2022/03/15 06:56:08;;;;;;;;;20.67;19.33;;;;;12.14;78.39;101962.34;5055003;28;45487;-76
2022/03/15 06:58:43;;;;;;;;;19.67;14.67;;;;;12.06;78.13;101945.41;5047982;28;45427;-77
2022/03/15 07:01:28;;;;;;;;;19.00;17.67;;;;;12.09;78.42;101955.16;5046461;28;45593;-77
2022/03/15 07:03:58;;;;;;;;;17.00;16.00;;;;;12.09;76.72;101944.56;5054152;28;46674;-77
2022/03/15 07:06:23;;;;;;;;;18.67;16.00;;;;;12.14;76.92;101941.16;5052647;28;56909;-79
2022/03/15 07:09:16;;;;;;;;;17.67;16.33;;;;;12.20;77.03;101951.03;5049264;28;46579;-79
2022/03/15 07:11:41;;;;;;;;;19.00;19.00;;;;;12.21;77.28;101942.22;5043464;28;45499;-79
2022/03/15 07:14:25;;;;;;;;;21.67;18.00;;;;;12.24;76.53;101948.44;5051387;28;52960;-78
2022/03/15 07:16:53;;;;;;;;;18.00;18.00;;;;;12.28;76.13;101947.66;5054809;28;45461;-78
2022/03/15 07:20:07;;;;;;;;;19.00;17.00;;;;;12.33;76.55;101953.06;5051367;28;56723;-78
2022/03/15 07:22:37;;;;;;;;;21.25;20.50;;;;;12.38;75.93;101961.13;5049555;28;45646;-75
2022/03/15 07:25:03;;;;;;;;;24.00;21.25;;;;;12.38;75.96;101959.38;5054141;28;64757;-75
2022/03/15 07:27:30;;;;;;;;;21.50;21.50;;;;;12.40;75.45;101957.63;5054097;28;45613;-76
2022/03/15 07:29:55;;;;;;;;;21.00;18.75;;;;;12.41;76.89;101956.78;5051209;28;45584;-77
2022/03/15 07:32:20;;;;;;;;;23.25;19.00;;;;;12.44;75.30;101959.50;5056761;28;46338;-79
2022/03/15 07:34:47;;;;;;;;;22.50;22.00;;;;;12.47;74.66;101956.91;5052719;28;63574;-79
2022/03/15 07:37:12;;;;;;;;;21.50;21.00;;;;;12.56;74.25;101972.97;5051363;28;45451;-79
2022/03/15 07:39:37;;;;;;;;;23.00;21.25;;;;;12.62;74.13;101958.06;5053261;28;45536;-79
2022/03/15 07:42:03;;;;;;;;;26.25;21.50;;;;;12.69;73.81;101954.72;5053351;28;45444;-79
2022/03/15 07:44:28;;;;;;;;;19.00;19.00;;;;;12.75;73.72;101957.47;5053463;28;46506;-80
2022/03/15 07:46:54;;;;;;;;;18.33;18.33;;;;;12.79;73.69;101948.75;5051845;28;45634;-79
2022/03/15 07:49:20;;;;;;;;;24.75;20.00;;;;;12.83;73.54;101946.16;5047510;28;45988;-80
2022/03/15 07:51:46;;;;;;;;;22.25;16.00;;;;;12.86;73.33;101945.34;5055910;28;45349;-78
2022/03/15 07:54:12;;;;;;;;;20.50;20.25;;;;;12.92;73.32;101940.16;5120984;22;47014;-78
2022/03/15 07:56:37;;;;;;;;;46.00;35.75;;;;;12.95;73.10;101919.00;4990787;28;46471;-79
2022/03/15 07:59:03;;;;;;;;;45.00;29.50;;;;;13.04;73.20;101931.53;5001991;28;46044;-79
2022/03/15 08:01:28;;;;;;;;;29.67;21.33;;;;;13.10;72.80;101936.94;4998381;28;52922;-78
2022/03/15 08:03:54;;;;;;;;;28.25;24.00;;;;;13.16;72.85;101942.38;4991613;28;46356;-81
2022/03/15 08:06:19;;;;;;;;;33.75;27.75;;;;;13.16;72.63;101936.19;4994457;28;45478;-81
2022/03/15 08:08:45;;;;;;;;;27.67;20.00;;;;;13.19;72.55;101934.47;4995881;28;45813;-82
2022/03/15 08:11:10;;;;;;;;;26.67;22.67;;;;;13.25;72.37;101945.19;4991931;28;45597;-80
2022/03/15 08:13:35;;;;;;;;;22.75;21.75;;;;;13.24;72.30;101935.47;4996866;28;48303;-79
2022/03/15 08:16:05;;;;;;;;;25.67;22.33;;;;;13.26;72.19;101927.53;4997218;28;47379;-79
2022/03/15 08:18:31;;;;;;;;;26.00;22.25;;;;;13.30;72.06;101935.56;4996297;28;45504;-80
2022/03/15 08:20:58;;;;;;;;;26.33;20.33;;;;;13.27;72.10;101935.53;4989296;28;45597;-79
2022/03/15 08:23:24;;;;;;;;;20.33;20.33;;;;;13.33;71.97;101929.44;4990957;28;46280;-80
2022/03/15 08:25:49;;;;;;;;;26.00;23.00;;;;;13.35;71.88;101935.66;4988838;28;45632;-78
2022/03/15 08:28:14;;;;;;;;;23.33;23.33;;;;;13.34;71.96;101940.06;4996887;28;45677;-80
2022/03/15 08:30:40;;;;;;;;;24.33;23.00;;;;;13.35;71.88;101941.84;4989152;28;55619;-79
2022/03/15 08:33:05;;;;;;;;;26.00;21.50;;;;;13.32;71.83;101941.81;4991599;28;60391;-79
2022/03/15 08:35:31;;;;;;;;;26.75;23.00;;;;;13.38;71.80;101942.78;4993359;28;45585;-79
2022/03/15 08:37:56;;;;;;;;;30.75;26.50;;;;;13.37;71.47;101941.91;4998439;28;45972;-83
2022/03/15 08:40:22;;;;;;;;;27.33;24.33;;;;;13.39;71.71;101942.81;4996149;28;45528;-80
2022/03/15 08:42:48;;;;;;;;;35.75;30.50;;;;;13.34;71.80;101932.13;4998436;28;46026;-79
2022/03/15 09:06:10;;;;;;;;;31.75;30.75;;;;;13.43;71.77;101960.56;5002088;28;45831;-80
2022/03/15 09:08:36;;;;;;;;;32.25;29.50;;;;;13.48;71.55;101984.53;5009982;28;47335;-80
2022/03/15 09:11:03;;;;;;;;;26.25;26.00;;;;;13.46;72.06;101975.63;5012130;28;57928;-81
2022/03/15 09:13:28;;;;;;;;;27.50;25.50;;;;;13.43;71.85;101959.69;5015018;28;45711;-80
2022/03/15 09:15:54;;;;;;;;;31.00;30.00;;;;;13.47;71.33;101977.41;5016723;28;45184;-80
2022/03/15 09:18:20;;;;;;;;;35.75;32.25;;;;;13.47;71.94;101974.75;5018364;28;46519;-80
2022/03/15 09:20:46;;;;;;;;;36.00;32.75;;;;;13.48;71.69;101979.22;5017553;28;45566;-81
2022/03/15 09:23:11;;;;;;;;;35.25;31.75;;;;;13.48;71.75;101956.25;5006564;28;45339;-81
2022/03/15 09:25:37;;;;;;;;;32.50;31.25;;;;;13.49;71.53;101960.66;5013336;28;53645;-80
2022/03/15 09:28:03;;;;;;;;;35.25;32.00;;;;;13.52;71.40;101971.31;5014910;28;46671;-80
2022/03/15 09:30:30;;;;;;;;;39.00;32.50;;;;;13.53;71.69;101972.22;5015279;28;45253;-79
2022/03/15 09:32:58;;;;;;;;;35.25;30.75;;;;;13.55;71.66;101970.50;5009505;28;45434;-79
2022/03/15 09:35:24;;;;;;;;;32.75;29.75;;;;;13.59;71.91;101961.72;5005801;28;45537;-80
2022/03/15 09:37:49;;;;;;;;;42.50;34.75;;;;;13.65;71.95;101958.28;5015525;28;45679;-80
2022/03/15 09:40:15;;;;;;;;;20.00;16.25;;;;;13.70;71.61;101944.22;5016426;28;45330;-79
2022/03/15 09:42:40;;;;;;;;;32.75;32.75;;;;;13.70;71.46;101944.22;4988231;28;45426;-79
2022/03/15 09:45:06;;;;;;;;;36.75;30.75;;;;;13.80;71.68;101948.81;5010320;28;45395;-80
2022/03/15 09:47:34;;;;;;;;;45.25;32.75;;;;;13.79;71.66;101933.72;5014647;28;47193;-79
2022/03/15 09:50:02;;;;;;;;;34.00;30.75;;;;;13.86;71.64;101940.03;5009028;28;45356;-79
2022/03/15 09:52:28;;;;;;;;;41.25;32.75;;;;;13.95;71.72;101939.25;5026140;28;45381;-79
2022/03/15 09:54:54;;;;;;;;;42.50;33.75;;;;;13.97;71.62;101930.47;5018470;28;45361;-78
2022/03/15 09:57:19;;;;;;;;;39.75;35.00;;;;;14.02;71.33;101930.53;4998791;28;46867;-79
2022/03/15 09:59:46;;;;;;;;;38.75;33.25;;;;;14.04;71.38;101926.13;5015728;28;59487;-78
2022/03/15 10:02:12;;;;;;;;;38.75;32.75;;;;;14.06;71.39;101922.63;5011337;28;45353;-79
2022/03/15 10:04:37;;;;;;;;;34.50;32.50;;;;;14.07;71.44;101939.47;5010575;28;56724;-79
2022/03/15 10:07:04;;;;;;;;;35.25;29.75;;;;;14.04;71.20;101927.03;5015703;28;58075;-78
2022/03/15 10:09:30;;;;;;;;;35.25;29.50;;;;;14.03;71.19;101932.31;5027481;28;45370;-79
2022/03/15 10:11:56;;;;;;;;;29.75;25.00;;;;;13.99;71.14;101944.66;5014231;28;45479;-80
2022/03/15 10:14:21;;;;;;;;;34.75;30.75;;;;;13.93;71.09;101923.31;5011109;28;45391;-79
2022/03/15 10:16:49;;;;;;;;;39.00;34.00;;;;;13.96;71.14;101930.44;5010216;28;45532;-79
2022/03/15 10:19:14;;;;;;;;;32.25;29.50;;;;;13.94;71.13;101933.06;5010427;28;46019;-78
2022/03/15 10:21:49;;;;;;;;;34.75;26.75;;;;;13.93;71.09;101931.28;5007548;28;45534;-79
2022/03/15 10:24:18;;;;;;;;;32.25;30.75;;;;;13.89;71.64;101929.44;5013623;28;45485;-79
2022/03/15 10:26:45;;;;;;;;;37.75;31.75;;;;;13.85;71.63;101922.34;5006293;28;47897;-78
2022/03/15 10:29:13;;;;;;;;;35.50;31.00;;;;;13.88;71.38;101941.84;5015466;28;45379;-81
2022/03/15 10:31:39;;;;;;;;;34.00;30.00;;;;;13.80;71.27;101921.38;4992859;28;45456;-80
2022/03/15 10:34:05;;;;;;;;;42.50;35.00;;;;;13.85;71.75;101919.69;5025029;28;45520;-79
2022/03/15 10:36:49;;;;;;;;;34.00;31.50;;;;;13.87;71.71;101920.56;5014089;28;45395;-78
2022/03/15 10:39:15;;;;;;;;;34.50;28.50;;;;;13.85;71.77;101917.03;5013979;28;45514;-78
2022/03/15 10:41:54;;;;;;;;;35.75;29.50;;;;;13.88;71.69;101920.59;5010617;28;45547;-78
2022/03/15 10:44:23;;;;;;;;;36.50;32.75;;;;;13.89;71.26;101924.13;5008552;28;45368;-79
2022/03/15 10:46:58;;;;;;;;;31.50;31.25;;;;;13.89;71.59;101914.41;5015327;28;47580;-78
2022/03/15 10:49:24;;;;;;;;;34.50;31.75;;;;;13.92;71.84;101915.34;5014415;28;45209;-79
2022/03/15 10:51:49;;;;;;;;;44.50;33.25;;;;;13.89;71.45;101898.47;5008974;28;45487;-78
2022/03/15 10:54:15;;;;;;;;;40.00;34.00;;;;;13.92;71.32;101905.59;5013979;28;56673;-79
2022/03/15 10:56:40;;;;;;;;;35.00;32.75;;;;;13.94;71.31;101906.50;5005553;28;48290;-81
2022/03/15 10:59:06;;;;;;;;;39.75;33.75;;;;;13.91;71.79;101906.50;5008613;28;45459;-81
2022/03/15 11:01:36;;;;;;;;;35.75;32.75;;;;;13.93;71.86;101918.00;5014193;28;45505;-80
2022/03/15 11:04:06;;;;;;;;;42.50;32.50;;;;;13.89;71.79;101906.44;5004934;28;45313;-81
2022/03/15 11:06:31;;;;;;;;;30.75;26.25;;;;;13.96;71.71;101906.56;5013017;28;47428;-80
2022/03/15 11:09:00;;;;;;;;;36.50;31.25;;;;;13.97;71.60;101905.69;5015747;28;45335;-78
2022/03/15 11:11:27;;;;;;;;;38.50;33.00;;;;;13.99;71.66;101910.13;5010700;28;45308;-78
2022/03/15 11:14:03;;;;;;;;;37.50;31.75;;;;;14.01;71.50;101908.41;5006773;28;45181;-78
2022/03/15 11:16:37;;;;;;;;;36.75;33.00;;;;;14.04;71.08;101902.22;5014930;28;47414;-77
2022/03/15 11:19:04;;;;;;;;;33.50;32.50;;;;;14.05;71.32;101899.59;5024091;28;46226;-78
2022/03/15 11:21:33;;;;;;;;;39.00;32.50;;;;;14.07;71.17;101889.00;5011217;28;45474;-77
2022/03/15 11:23:59;;;;;;;;;35.00;32.75;;;;;14.16;71.15;101890.00;5009453;28;45272;-77
2022/03/15 11:26:24;;;;;;;;;38.25;32.75;;;;;14.20;71.03;101890.03;5007554;28;46562;-78
2022/03/15 11:28:50;;;;;;;;;34.25;32.00;;;;;14.25;71.47;101889.22;5009700;28;45597;-77
2022/03/15 11:31:16;;;;;;;;;31.25;27.75;;;;;14.27;71.39;101882.16;5010842;28;53242;-76
2022/03/15 11:33:41;;;;;;;;;37.25;32.00;;;;;14.34;71.23;101875.19;5001355;28;45513;-77
2022/03/15 11:36:07;;;;;;;;;34.50;29.25;;;;;14.43;70.85;101883.25;5009982;28;47556;-77
2022/03/15 11:38:35;;;;;;;;;31.75;29.00;;;;;14.51;71.08;101884.28;5013752;28;45502;-77
2022/03/15 11:41:00;;;;;;;;;38.00;31.00;;;;;14.57;70.98;101876.38;5009652;28;45677;-77
2022/03/15 11:43:33;;;;;;;;;36.25;29.00;;;;;14.61;70.66;101882.63;5008462;28;45275;-77